Time;durP1;ratioP1;P1;durP2;ratioP2;P2;SDS_P1;SDS_P2;PMS_P1;PMS_P2;Temp;Humidity;BMP_temperature;BMP_pressure;BME280_temperature;BME280_humidity;BME280_pressure;Samples;Min_cycle;Max_cycle;Signal;HPM_P1;HPM_P2
2022/10/25 00:02:15;;;;;;;23.88;11.13;;;13.60;99.90;;;;;;4955267;29;20105;-67
2022/10/25 00:04:40;;;;;;;20.70;11.63;;;12.80;99.90;;;;;;4942252;29;20035;-67
2022/10/25 00:07:06;;;;;;;25.00;12.23;;;12.90;99.90;;;;;;4953563;29;20046;-66
2022/10/25 00:09:31;;;;;;;25.33;11.70;;;12.70;99.90;;;;;;4938090;29;20490;-66
2022/10/25 00:11:57;;;;;;;23.35;12.10;;;12.70;99.90;;;;;;4937322;29;20490;-67
2022/10/25 00:14:22;;;;;;;24.67;12.88;;;12.80;99.90;;;;;;4938207;29;20375;-66
2022/10/25 00:16:48;;;;;;;28.42;12.80;;;;;;;;;;4955118;29;20098;-66
2022/10/25 00:19:14;;;;;;;28.05;12.90;;;12.80;99.90;;;;;;4938221;29;20051;-67
2022/10/25 00:21:40;;;;;;;25.23;13.07;;;12.80;99.90;;;;;;4937451;29;20050;-66
2022/10/25 00:24:06;;;;;;;23.10;12.05;;;12.80;99.90;;;;;;4955176;29;20106;-66
2022/10/25 00:26:33;;;;;;;31.15;13.25;;;12.80;99.90;;;;;;4931540;29;20043;-66
2022/10/25 00:28:58;;;;;;;24.08;12.70;;;12.90;99.90;;;;;;4936406;29;20098;-67
2022/10/25 00:31:24;;;;;;;25.67;13.15;;;13.00;99.90;;;;;;4955162;29;20493;-66
2022/10/25 00:33:50;;;;;;;22.55;13.95;;;12.90;99.90;;;;;;4937681;29;20039;-66
2022/10/25 00:36:21;;;;;;;25.23;12.60;;;13.00;99.90;;;;;;4950127;28;20042;-66
2022/10/25 00:38:47;;;;;;;27.52;13.50;;;13.00;99.90;;;;;;4937956;29;20055;-66
2022/10/25 00:41:15;;;;;;;24.38;11.77;;;13.00;99.90;;;;;;4954688;29;20414;-67
2022/10/25 00:43:49;;;;;;;29.85;11.48;;;12.90;99.90;;;;;;4937884;29;20101;-67
2022/10/25 00:46:22;;;;;;;25.67;12.18;;;12.90;99.90;;;;;;4954927;29;20385;-66
2022/10/25 00:49:07;;;;;;;26.88;11.98;;;12.80;99.90;;;;;;4936750;29;20043;-66
2022/10/25 00:51:40;;;;;;;25.13;11.32;;;13.00;99.90;;;;;;4923930;29;20043;-66
2022/10/25 00:54:09;;;;;;;27.10;11.88;;;12.90;99.90;;;;;;4954785;29;20050;-67
2022/10/25 00:56:38;;;;;;;28.23;11.48;;;12.90;99.90;;;;;;4954504;28;20061;-66
2022/10/25 00:59:08;;;;;;;23.95;11.10;;;13.10;99.90;;;;;;4954791;29;20042;-66
2022/10/25 01:01:35;;;;;;;21.08;9.73;;;13.10;99.90;;;;;;4921486;29;20043;-66
2022/10/25 01:04:06;;;;;;;20.23;10.57;;;13.10;99.90;;;;;;4952508;28;20039;-66
2022/10/25 01:06:41;;;;;;;23.13;11.25;;;13.20;99.90;;;;;;4952886;28;20548;-66
2022/10/25 01:09:08;;;;;;;;;;;13.00;99.90;;;;;;4937833;29;20041;-66
2022/10/25 01:11:37;;;;;;;21.50;10.27;;;;;;;;;;4937381;29;19918;-67
2022/10/25 01:14:05;;;;;;;21.17;11.18;;;13.10;99.90;;;;;;4954869;29;20050;-66
2022/10/25 01:16:42;;;;;;;26.08;12.10;;;13.20;99.90;;;;;;4937424;29;20051;-66
2022/10/25 01:19:32;;;;;;;22.23;10.80;;;13.20;99.90;;;;;;4952764;28;20098;-66
2022/10/25 01:22:05;;;;;;;25.52;10.60;;;12.90;99.90;;;;;;4937181;29;20106;-66
2022/10/25 01:25:03;;;;;;;28.90;11.15;;;13.20;99.90;;;;;;4954485;29;20089;-66
2022/10/25 01:27:52;;;;;;;20.85;11.75;;;13.10;99.90;;;;;;4954765;29;20427;-67
2022/10/25 01:30:24;;;;;;;24.77;11.25;;;13.10;99.90;;;;;;4936962;29;20109;-66
2022/10/25 01:33:01;;;;;;;28.83;12.52;;;13.20;99.90;;;;;;4937082;29;20051;-67
2022/10/25 01:35:52;;;;;;;26.58;12.40;;;13.20;99.90;;;;;;4953317;28;20102;-67
2022/10/25 01:38:43;;;;;;;26.38;12.75;;;13.10;99.90;;;;;;4946366;29;20039;-67
2022/10/25 01:41:23;;;;;;;30.13;13.48;;;13.00;99.90;;;;;;4937492;29;20071;-67
2022/10/25 01:44:07;;;;;;;32.53;13.18;;;13.40;99.90;;;;;;4953726;29;20047;-66
2022/10/25 01:46:48;;;;;;;21.38;12.60;;;13.00;99.90;;;;;;4930935;29;20044;-67
2022/10/25 01:49:22;;;;;;;24.60;12.55;;;13.20;99.90;;;;;;4937696;29;20139;-67
2022/10/25 01:51:48;;;;;;;19.27;11.80;;;13.20;99.90;;;;;;4957650;29;20492;-67
2022/10/25 01:54:24;;;;;;;20.85;13.05;;;13.20;99.90;;;;;;4940426;29;20043;-67
2022/10/25 01:57:16;;;;;;;26.08;12.68;;;13.20;99.90;;;;;;4939460;29;20067;-67
2022/10/25 01:59:55;;;;;;;22.83;11.27;;;13.20;99.90;;;;;;4921106;29;20150;-67
2022/10/25 02:02:51;;;;;;;22.55;11.90;;;13.20;99.90;;;;;;4938628;29;20055;-67
2022/10/25 02:05:47;;;;;;;19.80;11.10;;;13.40;99.90;;;;;;4947866;29;20035;-67
2022/10/25 02:08:20;;;;;;;28.75;12.95;;;13.30;99.90;;;;;;4957492;29;20086;-67
2022/10/25 02:11:07;;;;;;;24.30;12.88;;;13.20;99.90;;;;;;4955215;28;20045;-67
2022/10/25 02:13:44;;;;;;;28.13;12.07;;;13.20;99.90;;;;;;4945963;29;20111;-67
2022/10/25 02:16:14;;;;;;;26.13;13.63;;;13.30;99.90;;;;;;4957381;29;20098;-66
2022/10/25 02:18:44;;;;;;;22.00;11.95;;;13.10;99.90;;;;;;4957269;29;20047;-66
2022/10/25 02:21:12;;;;;;;21.30;12.63;;;13.20;99.90;;;;;;4957209;29;20038;-67
2022/10/25 02:23:39;;;;;;;26.17;13.48;;;13.10;99.90;;;;;;4956926;28;20118;-66
2022/10/25 02:26:07;;;;;;;24.05;12.23;;;13.20;99.90;;;;;;4948767;29;20094;-67
2022/10/25 02:28:35;;;;;;;26.33;13.10;;;13.20;99.90;;;;;;4957314;29;20130;-67
2022/10/25 02:31:01;;;;;;;24.60;13.07;;;13.10;99.90;;;;;;4935777;29;20047;-67
2022/10/25 02:33:27;;;;;;;24.27;13.38;;;;;;;;;;4956948;29;20122;-67
2022/10/25 02:36:21;;;;;;;28.05;14.27;;;13.10;99.90;;;;;;4953620;29;20039;-67
2022/10/25 02:38:48;;;;;;;26.40;14.05;;;13.10;99.90;;;;;;4956055;28;20067;-66
2022/10/25 02:41:15;;;;;;;25.35;12.77;;;13.10;99.90;;;;;;4957115;29;20031;-67
2022/10/25 02:43:40;;;;;;;24.25;13.45;;;13.10;99.90;;;;;;4956402;28;20071;-66
2022/10/25 02:46:09;;;;;;;25.70;14.48;;;13.00;99.90;;;;;;4954744;29;20515;-66
2022/10/25 02:48:35;;;;;;;30.98;12.70;;;13.10;99.90;;;;;;4957068;29;20043;-66
2022/10/25 02:51:02;;;;;;;28.40;13.20;;;12.80;99.90;;;;;;4956795;29;20486;-67
2022/10/25 02:53:28;;;;;;;25.23;13.95;;;13.20;99.90;;;;;;4954947;28;20039;-66
2022/10/25 02:56:12;;;;;;;28.42;12.75;;;13.30;99.90;;;;;;4953052;29;20127;-66
2022/10/25 02:58:39;;;;;;;23.42;13.13;;;13.10;99.90;;;;;;4939261;29;20047;-67
2022/10/25 03:01:06;;;;;;;23.27;11.88;;;13.30;99.90;;;;;;4956151;29;20039;-67
2022/10/25 03:03:31;;;;;;;23.23;11.43;;;12.80;99.90;;;;;;4938745;28;20493;-66
2022/10/25 03:05:57;;;;;;;23.00;11.85;;;13.10;99.90;;;;;;4954581;29;20036;-66
2022/10/25 03:08:24;;;;;;;27.77;13.05;;;13.10;99.90;;;;;;4956840;29;20086;-67
2022/10/25 03:10:50;;;;;;;21.92;12.30;;;13.00;99.90;;;;;;4939291;29;20059;-67
2022/10/25 03:13:16;;;;;;;19.83;11.52;;;12.90;99.90;;;;;;4938877;29;20043;-66
2022/10/25 03:15:42;;;;;;;28.77;12.93;;;13.10;99.90;;;;;;4951320;28;20027;-66
2022/10/25 03:18:08;;;;;;;29.27;13.23;;;13.00;99.90;;;;;;4955664;29;21045;-66
2022/10/25 03:20:33;;;;;;;22.92;11.80;;;13.10;99.90;;;;;;4956294;29;20043;-66
2022/10/25 03:22:59;;;;;;;31.25;13.07;;;12.90;99.90;;;;;;4955124;29;20035;-66
2022/10/25 03:25:25;;;;;;;24.52;12.40;;;13.10;99.90;;;;;;4956127;29;20035;-66
2022/10/25 03:27:50;;;;;;;27.35;12.30;;;13.20;99.90;;;;;;4938736;29;20420;-67
2022/10/25 03:30:16;;;;;;;35.92;13.70;;;12.90;99.90;;;;;;4938051;29;20148;-66
2022/10/25 03:32:41;;;;;;;24.42;11.70;;;12.90;99.90;;;;;;4938634;29;20118;-66
2022/10/25 03:35:07;;;;;;;32.33;12.70;;;13.10;99.90;;;;;;4938653;29;20043;-66
2022/10/25 03:37:33;;;;;;;29.10;12.82;;;13.00;99.90;;;;;;4937844;29;20446;-67
2022/10/25 03:39:59;;;;;;;28.40;13.15;;;12.90;99.90;;;;;;4937972;29;20054;-66
2022/10/25 03:42:24;;;;;;;31.80;13.63;;;13.00;99.90;;;;;;4952187;28;20039;-66
2022/10/25 03:44:50;;;;;;;28.33;13.00;;;;;;;;;;4934772;28;20462;-66
2022/10/25 03:47:16;;;;;;;25.05;12.45;;;13.00;99.90;;;;;;4954242;28;20532;-66
2022/10/25 03:49:42;;;;;;;30.23;12.52;;;12.90;99.90;;;;;;4938382;29;20039;-66
2022/10/25 03:52:07;;;;;;;34.47;13.88;;;12.90;99.90;;;;;;4953706;29;20134;-66
2022/10/25 03:54:33;;;;;;;27.40;12.50;;;12.90;99.90;;;;;;4955753;29;20138;-66
2022/10/25 03:56:59;;;;;;;27.92;15.43;;;13.10;99.90;;;;;;4955493;29;20063;-66
2022/10/25 03:59:26;;;;;;;25.77;12.13;;;13.00;99.90;;;;;;4938762;29;20402;-66
2022/10/25 04:01:52;;;;;;;27.85;12.60;;;13.20;99.90;;;;;;4937498;29;20051;-66
2022/10/25 04:04:17;;;;;;;27.83;13.45;;;13.00;99.90;;;;;;4954790;28;20046;-66
2022/10/25 04:06:43;;;;;;;31.88;12.23;;;13.00;99.90;;;;;;4954343;29;20159;-66
2022/10/25 04:09:09;;;;;;;29.75;13.10;;;13.00;99.90;;;;;;4938555;29;20051;-66
2022/10/25 04:11:34;;;;;;;32.90;12.38;;;13.00;99.90;;;;;;4938288;29;20494;-66
2022/10/25 04:14:00;;;;;;;27.35;12.25;;;13.00;99.90;;;;;;4938237;29;20501;-67
2022/10/25 04:16:25;;;;;;;25.90;12.05;;;13.10;99.90;;;;;;4954454;28;20043;-67
2022/10/25 04:18:56;;;;;;;30.75;11.88;;;13.00;99.90;;;;;;4929730;29;20450;-66
2022/10/25 04:21:22;;;;;;;24.63;11.43;;;12.80;99.90;;;;;;4947501;29;20122;-66
2022/10/25 04:23:49;;;;;;;25.00;12.10;;;13.00;99.90;;;;;;4937857;29;20103;-66
2022/10/25 04:26:17;;;;;;;32.28;12.93;;;12.90;99.90;;;;;;4953236;28;20472;-66
2022/10/25 04:28:50;;;;;;;28.98;13.63;;;13.00;99.90;;;;;;4954949;29;20413;-66
2022/10/25 04:31:17;;;;;;;28.75;12.60;;;13.10;99.90;;;;;;4955238;29;20086;-66
2022/10/25 04:33:42;;;;;;;27.67;12.45;;;13.00;99.90;;;;;;4936468;29;20038;-66
2022/10/25 04:36:08;;;;;;;30.73;12.82;;;13.10;99.90;;;;;;4938014;29;20420;-66
2022/10/25 04:38:34;;;;;;;26.42;12.48;;;13.20;99.90;;;;;;4937860;29;20090;-66
2022/10/25 04:41:00;;;;;;;29.17;12.95;;;13.00;99.90;;;;;;4954098;28;20043;-66
2022/10/25 04:43:27;;;;;;;28.63;12.23;;;13.10;99.90;;;;;;4954839;29;20050;-67
2022/10/25 04:45:53;;;;;;;32.70;11.95;;;13.10;99.90;;;;;;4953104;29;20397;-66
2022/10/25 04:48:20;;;;;;;30.45;12.10;;;13.10;99.90;;;;;;4937671;29;20039;-66
2022/10/25 04:50:46;;;;;;;35.85;13.48;;;13.10;99.90;;;;;;4954765;29;20131;-66
2022/10/25 04:53:12;;;;;;;31.40;12.77;;;13.10;99.90;;;;;;4955038;29;20031;-67
2022/10/25 04:55:38;;;;;;;30.23;13.30;;;13.00;99.90;;;;;;4953619;28;20102;-67
2022/10/25 04:58:03;;;;;;;29.42;13.68;;;13.20;99.90;;;;;;4937618;29;20046;-67
2022/10/25 05:00:30;;;;;;;28.38;12.07;;;13.10;99.90;;;;;;4954159;29;20420;-66
2022/10/25 05:02:56;;;;;;;28.55;11.73;;;13.10;99.90;;;;;;4937381;29;20123;-67
2022/10/25 05:05:23;;;;;;;32.75;11.68;;;13.00;99.90;;;;;;4937513;29;20417;-66
2022/10/25 05:07:49;;;;;;;35.28;11.77;;;13.10;99.90;;;;;;4936633;29;20142;-66
2022/10/25 05:10:15;;;;;;;25.45;11.60;;;13.10;99.90;;;;;;4925961;28;20521;-66
2022/10/25 05:12:40;;;;;;;30.08;11.73;;;13.00;99.90;;;;;;4954661;29;20094;-66
2022/10/25 05:15:07;;;;;;;28.05;11.60;;;13.30;99.90;;;;;;4953068;28;20557;-66
2022/10/25 05:17:33;;;;;;;30.63;11.65;;;13.00;99.90;;;;;;4941606;29;20047;-67
2022/10/25 05:19:58;;;;;;;28.27;11.52;;;13.00;99.90;;;;;;4958413;29;20039;-66
2022/10/25 05:22:24;;;;;;;24.27;9.25;;;12.80;99.90;;;;;;4941364;29;20039;-67
2022/10/25 05:24:50;;;;;;;27.23;10.45;;;12.90;99.90;;;;;;4941117;29;20509;-66
2022/10/25 05:27:16;;;;;;;24.80;11.02;;;12.90;99.90;;;;;;4940917;29;20054;-66
2022/10/25 05:29:42;;;;;;;21.10;10.65;;;12.90;99.90;;;;;;4937911;29;20570;-66
2022/10/25 05:32:07;;;;;;;23.73;9.95;;;13.00;99.90;;;;;;4958385;29;20039;-67
2022/10/25 05:34:33;;;;;;;21.05;9.70;;;13.00;99.90;;;;;;4958190;29;20051;-66
2022/10/25 05:36:58;;;;;;;28.60;11.52;;;13.00;99.90;;;;;;4958150;29;20086;-66
2022/10/25 05:39:24;;;;;;;23.48;9.85;;;13.10;99.90;;;;;;4925211;29;20035;-66
2022/10/25 05:41:50;;;;;;;21.80;10.70;;;12.90;99.90;;;;;;4950738;28;20449;-67
2022/10/25 05:44:16;;;;;;;24.50;8.93;;;12.80;99.90;;;;;;4957887;29;20121;-66
2022/10/25 05:46:42;;;;;;;20.20;9.73;;;12.80;99.90;;;;;;4957943;29;20494;-67
2022/10/25 05:49:08;;;;;;;23.15;9.95;;;12.80;99.90;;;;;;4957296;28;20093;-66
2022/10/25 05:51:35;;;;;;;25.27;8.80;;;12.80;99.90;;;;;;4958207;29;20039;-67
2022/10/25 05:54:03;;;;;;;27.90;10.25;;;12.80;99.90;;;;;;4957778;29;20106;-66
2022/10/25 05:56:31;;;;;;;22.73;9.00;;;12.90;99.90;;;;;;4957486;29;20067;-66
2022/10/25 05:58:57;;;;;;;26.33;9.70;;;12.80;99.90;;;;;;4956183;29;20482;-66
2022/10/25 06:01:25;;;;;;;25.38;9.05;;;12.70;99.90;;;;;;4957941;29;20079;-66
2022/10/25 06:03:51;;;;;;;20.23;9.02;;;12.80;99.90;;;;;;4938847;29;20079;-66
2022/10/25 06:06:18;;;;;;;20.20;8.43;;;12.70;99.90;;;;;;4955158;28;20039;-66
2022/10/25 06:08:44;;;;;;;24.60;10.35;;;12.80;99.90;;;;;;4954119;28;20082;-66
2022/10/25 06:11:13;;;;;;;23.45;9.27;;;12.80;99.90;;;;;;4938600;29;20067;-66
2022/10/25 06:13:40;;;;;;;18.27;8.38;;;12.80;99.90;;;;;;4937620;28;20079;-66
2022/10/25 06:16:08;;;;;;;24.75;8.55;;;12.80;99.90;;;;;;4956897;28;20050;-66
2022/10/25 06:18:37;;;;;;;20.58;8.02;;;12.70;99.90;;;;;;4957165;28;20401;-65
2022/10/25 06:21:04;;;;;;;21.90;8.60;;;12.60;99.90;;;;;;4955802;28;20498;-65
2022/10/25 06:23:35;;;;;;;19.48;8.57;;;12.60;99.90;;;;;;4936804;28;20043;-65
2022/10/25 06:26:06;;;;;;;20.55;7.80;;;12.70;99.90;;;;;;4937921;29;20039;-65
2022/10/25 06:28:33;;;;;;;19.40;7.15;;;;;;;;;;4936908;29;20050;-65
2022/10/25 06:31:10;;;;;;;19.42;7.60;;;12.70;99.90;;;;;;4955457;29;20699;-65
2022/10/25 06:33:36;;;;;;;22.98;7.50;;;12.50;99.90;;;;;;4955218;29;20552;-64
2022/10/25 06:36:03;;;;;;;22.90;7.40;;;12.60;99.90;;;;;;4955326;29;20114;-64
2022/10/25 06:38:29;;;;;;;18.90;8.25;;;12.50;99.90;;;;;;4955025;29;20107;-64
2022/10/25 06:41:06;;;;;;;19.77;7.85;;;12.70;99.90;;;;;;4953644;29;20183;-64
2022/10/25 06:43:33;;;;;;;31.83;8.70;;;12.50;99.90;;;;;;4936910;29;20418;-65
2022/10/25 06:46:04;;;;;;;16.13;7.90;;;12.50;99.90;;;;;;4937605;29;20054;-65
2022/10/25 06:48:30;;;;;;;18.58;7.63;;;12.50;99.90;;;;;;4922623;29;20039;-65
2022/10/25 06:51:04;;;;;;;18.50;7.70;;;12.60;99.90;;;;;;4955368;28;20043;-65
2022/10/25 06:53:30;;;;;;;16.33;8.43;;;12.70;99.90;;;;;;4955230;29;20035;-65
2022/10/25 06:56:01;;;;;;;21.27;8.55;;;12.60;99.90;;;;;;4955580;28;20471;-64
2022/10/25 06:58:28;;;;;;;26.15;7.88;;;12.60;99.90;;;;;;4938434;29;20109;-65
2022/10/25 07:00:54;;;;;;;25.33;8.45;;;;;;;;;;4955812;29;20042;-65
2022/10/25 07:03:28;;;;;;;22.52;8.05;;;12.70;99.90;;;;;;4955879;28;20486;-64
2022/10/25 07:05:54;;;;;;;22.00;8.38;;;13.10;99.90;;;;;;4955122;29;20211;-64
2022/10/25 07:08:20;;;;;;;21.38;8.40;;;12.80;99.90;;;;;;4954859;28;20087;-64
2022/10/25 07:10:52;;;;;;;19.38;8.07;;;12.90;99.90;;;;;;4938582;29;20114;-64
2022/10/25 07:13:18;;;;;;;20.63;8.63;;;12.90;99.90;;;;;;4955690;29;20031;-65
2022/10/25 07:15:44;;;;;;;24.25;7.85;;;;;;;;;;4938144;29;20047;-64
2022/10/25 07:18:09;;;;;;;21.80;7.65;;;13.10;99.90;;;;;;4938148;29;20085;-64
2022/10/25 07:20:35;;;;;;;20.13;7.53;;;13.10;99.90;;;;;;4955688;29;20039;-64
2022/10/25 07:23:01;;;;;;;19.70;7.60;;;;;;;;;;4938115;29;20060;-64
2022/10/25 07:25:26;;;;;;;22.13;7.40;;;13.30;99.90;;;;;;4937289;29;20043;-64
2022/10/25 07:27:52;;;;;;;25.35;8.23;;;;;;;;;;4955786;29;20043;-64
2022/10/25 07:30:18;;;;;;;24.85;8.23;;;;;;;;;;4938101;29;20079;-64
2022/10/25 07:32:44;;;;;;;25.45;7.43;;;;;;;;;;4937080;28;20473;-64
2022/10/25 07:35:10;;;;;;;26.08;7.60;;;13.50;99.90;;;;;;4921617;28;20050;-65
2022/10/25 07:37:36;;;;;;;23.25;7.47;;;;;;;;;;4921604;28;20047;-65
2022/10/25 07:40:01;;;;;;;21.75;9.13;;;13.40;99.90;;;;;;4936999;29;20081;-64
2022/10/25 07:42:27;;;;;;;28.95;9.10;;;;;;;;;;4942112;29;20386;-64
2022/10/25 07:44:53;;;;;;;23.08;8.73;;;;;;;;;;4954959;29;20047;-63
2022/10/25 07:47:19;;;;;;;30.88;9.32;;;;;;;;;;4951255;28;20134;-63
2022/10/25 07:49:45;;;;;;;31.52;9.60;;;13.40;99.90;;;;;;4933959;29;20046;-65
2022/10/25 07:52:10;;;;;;;31.40;10.45;;;13.40;99.90;;;;;;4954586;28;20130;-64
2022/10/25 07:54:36;;;;;;;31.92;10.85;;;13.40;99.90;;;;;;4936473;28;20110;-64
2022/10/25 07:57:02;;;;;;;29.80;11.35;;;;;;;;;;4954872;28;20421;-64
2022/10/25 07:59:28;;;;;;;29.50;11.38;;;;;;;;;;4953758;28;20126;-63
2022/10/25 08:01:54;;;;;;;26.63;10.90;;;;;;;;;;4953731;28;20050;-64
2022/10/25 08:04:19;;;;;;;31.15;11.95;;;13.60;99.90;;;;;;4934539;29;20047;-64
2022/10/25 08:06:45;;;;;;;31.52;11.38;;;;;;;;;;4936670;29;20047;-64
2022/10/25 08:09:11;;;;;;;25.77;10.80;;;13.60;99.90;;;;;;4954843;29;20394;-64
2022/10/25 08:11:37;;;;;;;26.35;12.15;;;;;;;;;;4926824;29;20039;-65
2022/10/25 08:14:02;;;;;;;31.40;11.10;;;13.50;99.90;;;;;;4954352;28;20051;-65
2022/10/25 08:16:28;;;;;;;27.20;11.50;;;;;;;;;;4936853;28;20050;-64
2022/10/25 08:18:54;;;;;;;30.70;12.10;;;13.60;99.90;;;;;;4936097;28;20458;-65
2022/10/25 08:21:20;;;;;;;34.85;11.70;;;;;;;;;;4954165;28;20039;-64
2022/10/25 08:23:45;;;;;;;24.83;11.48;;;13.60;99.90;;;;;;4953561;28;20063;-64
2022/10/25 08:26:11;;;;;;;29.42;12.13;;;;;;;;;;4936139;28;20047;-64
2022/10/25 08:28:37;;;;;;;28.42;11.10;;;13.70;99.90;;;;;;4934717;28;20041;-64
2022/10/25 08:31:03;;;;;;;27.70;11.63;;;;;;;;;;4953565;28;20047;-64
2022/10/25 08:33:31;;;;;;;34.08;12.55;;;13.80;99.90;;;;;;4936218;29;20054;-64
2022/10/25 08:36:01;;;;;;;31.60;11.65;;;14.00;99.90;;;;;;4953432;29;20043;-65
2022/10/25 08:38:27;;;;;;;33.65;14.30;;;13.90;99.90;;;;;;4943038;28;20071;-65
2022/10/25 08:41:04;;;;;;;27.85;11.23;;;13.90;99.90;;;;;;4935850;29;20039;-64
2022/10/25 08:43:47;;;;;;;24.40;11.70;;;14.10;99.90;;;;;;4935370;29;20043;-64
2022/10/25 08:46:17;;;;;;;28.38;10.73;;;14.00;99.90;;;;;;4933873;29;20036;-64
2022/10/25 08:48:47;;;;;;;21.45;10.75;;;13.90;99.90;;;;;;4932943;28;20047;-64
2022/10/25 08:51:26;;;;;;;29.23;12.52;;;14.10;99.90;;;;;;4950379;28;20436;-64
2022/10/25 08:53:55;;;;;;;20.70;10.73;;;14.30;99.90;;;;;;4936760;29;20114;-64
2022/10/25 08:56:21;;;;;;;25.20;10.00;;;;;;;;;;4952899;28;20066;-64
2022/10/25 08:58:54;;;;;;;22.85;10.45;;;14.50;99.90;;;;;;4936863;29;20051;-65
2022/10/25 09:01:26;;;;;;;22.02;9.05;;;15.90;99.90;;;;;;4936841;29;20051;-64
2022/10/25 09:03:52;;;;;;;21.42;9.38;;;15.70;99.90;;;;;;4936776;29;20043;-64
2022/10/25 09:06:32;;;;;;;17.80;9.00;;;16.50;99.90;;;;;;4945080;28;20046;-64
2022/10/25 09:09:43;;;;;;;19.33;8.27;;;16.70;99.90;;;;;;4945258;29;20050;-64
2022/10/25 09:12:49;;;;;;;21.45;7.43;;;16.60;99.90;;;;;;4938196;29;20042;-64
2022/10/25 09:15:56;;;;;;;13.50;6.25;;;17.30;99.90;;;;;;4936546;29;20062;-63
2022/10/25 09:18:36;;;;;;;15.80;5.72;;;17.80;99.90;;;;;;4913420;29;20059;-65
2022/10/25 09:21:07;;;;;;;17.95;6.45;;;17.90;99.90;;;;;;4936095;29;20086;-65
2022/10/25 09:23:32;;;;;;;17.30;5.93;;;17.30;99.90;;;;;;4936686;29;20123;-65
2022/10/25 09:26:15;;;;;;;21.23;5.85;;;18.30;99.90;;;;;;4951877;29;20031;-65
2022/10/25 09:29:01;;;;;;;16.85;5.88;;;18.10;99.90;;;;;;4936731;29;20047;-65
2022/10/25 09:31:30;;;;;;;17.63;5.90;;;17.90;99.90;;;;;;4934799;29;20051;-65
2022/10/25 09:34:01;;;;;;;10.95;5.22;;;18.10;99.90;;;;;;4935936;29;20094;-65
2022/10/25 09:36:32;;;;;;;15.48;6.32;;;17.40;99.90;;;;;;4954074;29;20074;-65
2022/10/25 09:39:01;;;;;;;15.18;5.53;;;17.00;99.90;;;;;;4953507;29;20501;-64
2022/10/25 09:41:40;;;;;;;14.68;5.82;;;16.60;99.90;;;;;;4953921;29;20044;-64
2022/10/25 09:44:18;;;;;;;18.73;5.35;;;16.20;99.90;;;;;;4936312;29;20039;-64
2022/10/25 09:46:53;;;;;;;19.02;6.75;;;16.00;99.90;;;;;;4930662;29;20396;-65
2022/10/25 09:49:18;;;;;;;;;;;16.10;99.90;;;;;;4936194;29;20047;-64
2022/10/25 09:52:14;;;;;;;17.00;5.88;;;15.70;99.90;;;;;;4936494;29;20300;-65
2022/10/25 09:54:48;;;;;;;15.23;6.85;;;15.70;99.90;;;;;;4940443;28;20521;-64
2022/10/25 09:57:13;;;;;;;23.70;6.30;;;16.10;99.90;;;;;;4953505;29;20067;-65
2022/10/25 09:59:39;;;;;;;15.52;5.15;;;15.80;99.90;;;;;;4936002;29;20126;-65
2022/10/25 10:02:05;;;;;;;21.52;5.88;;;15.80;99.90;;;;;;4930487;29;20174;-65
2022/10/25 10:04:38;;;;;;;15.77;4.60;;;15.70;99.90;;;;;;4937217;28;20040;-64
2022/10/25 10:07:13;;;;;;;13.00;4.90;;;15.70;99.90;;;;;;4956562;28;20071;-64
2022/10/25 10:09:40;;;;;;;15.90;4.82;;;15.60;99.90;;;;;;4941594;28;20449;-64
2022/10/25 10:12:50;;;;;;;9.50;4.88;;;15.70;99.90;;;;;;4957321;28;20035;-65
2022/10/25 10:15:29;;;;;;;15.60;5.75;;;15.80;99.90;;;;;;4898214;29;20051;-64
2022/10/25 10:18:21;;;;;;;13.13;5.20;;;15.90;99.90;;;;;;4943975;29;20063;-64
2022/10/25 10:20:58;;;;;;;14.38;5.70;;;16.00;99.90;;;;;;4926085;29;20426;-65
2022/10/25 10:23:27;;;;;;;18.38;6.05;;;16.20;99.90;;;;;;4940210;29;20406;-64
2022/10/25 10:25:52;;;;;;;22.42;7.57;;;16.20;99.90;;;;;;4924312;29;20050;-63
2022/10/25 10:28:18;;;;;;;15.13;5.80;;;16.20;99.90;;;;;;4939939;29;20057;-63
2022/10/25 10:30:53;;;;;;;20.70;8.05;;;16.30;99.90;;;;;;4956082;28;22027;-63
2022/10/25 10:33:19;;;;;;;11.85;6.03;;;16.10;99.90;;;;;;4955351;29;20433;-65
2022/10/25 10:35:44;;;;;;;13.20;6.07;;;16.10;99.90;;;;;;4940061;29;20122;-64
2022/10/25 10:38:39;;;;;;;18.48;5.45;;;16.00;99.90;;;;;;4924194;29;20491;-65
2022/10/25 10:41:13;;;;;;;16.85;5.80;;;16.10;99.90;;;;;;4952751;28;20433;-64
2022/10/25 10:43:39;;;;;;;14.18;5.28;;;15.70;99.90;;;;;;4934053;29;20047;-64
2022/10/25 10:46:12;;;;;;;11.43;5.05;;;15.60;99.90;;;;;;4956294;28;20110;-64
2022/10/25 10:48:42;;;;;;;11.85;5.57;;;15.60;99.90;;;;;;4956459;29;20039;-65
2022/10/25 10:51:08;;;;;;;13.88;5.03;;;15.40;99.90;;;;;;4956761;29;20409;-65
2022/10/25 10:53:34;;;;;;;15.43;5.55;;;15.40;99.90;;;;;;4950082;29;20031;-65
2022/10/25 10:56:03;;;;;;;16.25;5.53;;;15.50;99.90;;;;;;4946495;28;20059;-65
2022/10/25 10:58:31;;;;;;;14.32;5.95;;;15.60;99.90;;;;;;4932806;29;20082;-65
2022/10/25 11:01:01;;;;;;;17.13;5.50;;;15.40;99.90;;;;;;4951965;29;20482;-65
2022/10/25 11:03:42;;;;;;;15.70;5.57;;;15.60;99.90;;;;;;4950290;28;20120;-65
2022/10/25 11:06:26;;;;;;;9.43;5.03;;;15.60;99.90;;;;;;4938976;29;20046;-65
2022/10/25 11:09:18;;;;;;;13.30;5.53;;;15.90;99.90;;;;;;4954153;28;20402;-65
2022/10/25 11:12:03;;;;;;;14.05;5.60;;;16.00;99.90;;;;;;4930709;29;20047;-65
2022/10/25 11:14:28;;;;;;;17.58;5.97;;;16.10;99.90;;;;;;4954486;28;20039;-65
2022/10/25 11:17:06;;;;;;;10.32;5.03;;;16.10;99.90;;;;;;4956217;28;20062;-65
2022/10/25 11:20:04;;;;;;;10.88;4.57;;;16.20;99.90;;;;;;4939165;29;20460;-65
2022/10/25 11:22:47;;;;;;;14.80;4.10;;;16.10;99.90;;;;;;4925637;28;20568;-65
2022/10/25 11:25:36;;;;;;;14.98;4.80;;;16.10;99.90;;;;;;4956209;29;20391;-65
2022/10/25 11:28:04;;;;;;;20.65;4.13;;;16.40;99.90;;;;;;4937664;29;20557;-65
2022/10/25 11:31:00;;;;;;;10.23;4.10;;;16.20;99.90;;;;;;4939223;29;20143;-65
2022/10/25 11:33:46;;;;;;;;;;;16.40;99.90;;;;;;4939343;29;20047;-65
2022/10/25 11:36:50;;;;;;;11.73;3.78;;;16.50;99.90;;;;;;4942940;29;19991;-65
2022/10/25 11:39:40;;;;;;;10.82;3.85;;;16.40;99.90;;;;;;4937084;29;20051;-65
2022/10/25 11:42:33;;;;;;;11.85;3.50;;;16.60;99.90;;;;;;4936779;29;20085;-65
2022/10/25 11:45:39;;;;;;;11.70;5.07;;;16.60;99.90;;;;;;4956024;29;20086;-65
2022/10/25 11:48:16;;;;;;;12.70;3.67;;;16.60;99.90;;;;;;4889964;29;20063;-65
2022/10/25 11:50:59;;;;;;;16.35;4.57;;;16.60;99.90;;;;;;4938672;29;20053;-65
2022/10/25 11:53:57;;;;;;;16.38;4.05;;;16.30;99.90;;;;;;4936470;29;20047;-65
2022/10/25 11:56:51;;;;;;;12.00;4.60;;;16.30;99.90;;;;;;4940688;29;20142;-65
2022/10/25 11:59:41;;;;;;;12.57;3.85;;;16.30;99.90;;;;;;4955067;29;20130;-65
2022/10/25 12:02:36;;;;;;;10.15;3.92;;;16.00;99.90;;;;;;4938343;29;20051;-65
2022/10/25 12:05:27;;;;;;;15.27;5.05;;;16.20;99.90;;;;;;4943761;29;20042;-65
2022/10/25 12:08:21;;;;;;;18.10;4.80;;;15.80;99.90;;;;;;4931609;29;20046;-65
2022/10/25 12:10:59;;;;;;;13.27;4.38;;;16.00;99.90;;;;;;4934214;29;20490;-65
2022/10/25 12:13:33;;;;;;;12.30;3.78;;;15.90;99.90;;;;;;4941367;29;20505;-65
2022/10/25 12:16:01;;;;;;;10.35;4.13;;;15.90;99.90;;;;;;4952343;29;20050;-65
2022/10/25 12:18:33;;;;;;;10.10;4.47;;;16.20;99.90;;;;;;4937972;29;20074;-65
2022/10/25 12:21:00;;;;;;;16.55;4.75;;;16.00;99.90;;;;;;4937969;29;20082;-65
2022/10/25 12:23:29;;;;;;;11.85;4.15;;;15.70;99.90;;;;;;4955152;29;20497;-65
2022/10/25 12:25:59;;;;;;;9.40;4.10;;;16.10;99.90;;;;;;4937204;29;20451;-65
2022/10/25 12:28:34;;;;;;;13.30;4.50;;;16.00;99.90;;;;;;4954878;29;20047;-64
2022/10/25 12:31:03;;;;;;;;;;;15.90;99.90;;;;;;4954413;29;20039;-65
2022/10/25 12:33:39;;;;;;;14.07;4.68;;;15.80;99.90;;;;;;4937611;29;20009;-65
2022/10/25 12:36:27;;;;;;;7.95;4.70;;;16.10;99.90;;;;;;4923702;29;20043;-65
2022/10/25 12:38:54;;;;;;;12.82;5.35;;;15.90;99.90;;;;;;4953131;28;20054;-65
2022/10/25 12:41:31;;;;;;;7.70;3.95;;;15.90;99.90;;;;;;4937220;29;20502;-65
2022/10/25 12:44:36;;;;;;;11.43;4.22;;;15.90;99.90;;;;;;4937132;28;20039;-65
2022/10/25 12:47:23;;;;;;;10.90;4.22;;;16.20;99.90;;;;;;4955081;29;20058;-65
2022/10/25 12:50:10;;;;;;;11.85;4.22;;;16.30;99.90;;;;;;4937659;29;20490;-65
2022/10/25 12:52:38;;;;;;;9.20;4.32;;;16.10;99.90;;;;;;4954675;29;20130;-65
2022/10/25 12:55:16;;;;;;;21.23;5.18;;;16.10;99.90;;;;;;4954776;29;20513;-65
2022/10/25 12:57:51;;;;;;;12.85;4.05;;;16.10;99.90;;;;;;4937456;29;20054;-65
2022/10/25 13:00:19;;;;;;;9.15;4.43;;;16.00;99.90;;;;;;4933905;28;20486;-64
2022/10/25 13:03:33;;;;;;;9.48;4.45;;;16.10;99.90;;;;;;4935389;29;20125;-65
2022/10/25 13:06:24;;;;;;;15.02;4.53;;;16.10;99.90;;;;;;4895854;29;20059;-65